Time;durP1;ratioP1;P1;durP2;ratioP2;P2;SDS_P1;SDS_P2;PMS_P1;PMS_P2;Temp;Humidity;BMP_temperature;BMP_pressure;BME280_temperature;BME280_humidity;BME280_pressure;Samples;Min_cycle;Max_cycle;Signal;HPM_P1;HPM_P2
2023/06/22 00:04:35;;;;;;;9.43;8.57;;;;;;;;;;10033377;29;20517;-73
2023/06/22 00:09:33;;;;;;;8.85;8.05;;;;;;;;;;10033728;29;20048;-73
2023/06/22 00:14:29;;;;;;;8.93;7.97;;;;;;;;;;10015811;29;20079;-74
2023/06/22 00:19:25;;;;;;;9.13;8.32;;;;;;;;;;10015971;29;20098;-75
2023/06/22 00:24:22;;;;;;;9.63;8.02;;;;;;;;;;10036933;29;20080;-74
2023/06/22 00:29:18;;;;;;;10.40;9.20;;;;;;;;;;10032185;29;20138;-74
2023/06/22 00:34:15;;;;;;;9.77;8.77;;;;;;;;;;10029603;29;20055;-73
2023/06/22 00:39:12;;;;;;;10.65;7.97;;;;;;;;;;10031122;29;20046;-71
2023/06/22 00:44:08;;;;;;;10.02;8.32;;;;;;;;;;10032265;29;20043;-72
2023/06/22 00:49:05;;;;;;;8.85;8.15;;;;;;;;;;10025949;29;20772;-72
2023/06/22 00:54:01;;;;;;;8.90;8.02;;;;;;;;;;10030709;29;20551;-71
2023/06/22 00:58:59;;;;;;;9.10;8.30;;;;;;;;;;10028950;29;20035;-72
2023/06/22 01:03:57;;;;;;;8.65;7.85;;;;;;;;;;10023423;29;20556;-71
2023/06/22 01:08:59;;;;;;;9.25;8.25;;;;;;;;;;10031295;29;20415;-71
2023/06/22 01:14:08;;;;;;;8.38;7.68;;;;;;;;;;10021971;29;20044;-71
2023/06/22 01:19:23;;;;;;;9.43;8.45;;;;;;;;;;10014300;29;20528;-71
2023/06/22 01:24:26;;;;;;;9.23;8.43;;;;;;;;;;10028413;29;20067;-71
2023/06/22 01:29:24;;;;;;;8.93;8.15;;;;;;;;;;10028784;29;20154;-71
2023/06/22 01:34:21;;;;;;;9.48;8.60;;;;;;;;;;10030871;29;20063;-71
2023/06/22 01:39:17;;;;;;;9.70;8.70;;;;;;;;;;10029462;29;20071;-71
2023/06/22 01:44:14;;;;;;;9.60;8.73;;;;;;;;;;10014733;29;20047;-71
2023/06/22 01:49:10;;;;;;;11.30;7.65;;;;;;;;;;10025671;29;20055;-71
2023/06/22 01:54:08;;;;;;;9.40;8.55;;;;;;;;;;10026172;29;20494;-70
2023/06/22 01:59:20;;;;;;;9.73;8.60;;;;;;;;;;10027324;29;20047;-71
2023/06/22 02:04:21;;;;;;;8.82;8.02;;;;;;;;;;10030023;29;20067;-74
2023/06/22 02:09:19;;;;;;;9.52;8.63;;;;;;;;;;10028809;29;20052;-75
2023/06/22 02:14:16;;;;;;;8.52;7.72;;;;;;;;;;10010606;29;20043;-72
2023/06/22 02:19:15;;;;;;;9.02;8.23;;;;;;;;;;10005071;29;20036;-72
2023/06/22 02:24:12;;;;;;;9.45;8.55;;;;;;;;;;10038902;29;20099;-72
2023/06/22 02:29:08;;;;;;;9.80;8.80;;;;;;;;;;10036256;29;20140;-72
2023/06/22 02:34:04;;;;;;;9.40;8.27;;;;;;;;;;10038112;29;20560;-74
2023/06/22 02:39:01;;;;;;;9.65;8.75;;;;;;;;;;10030676;29;20502;-72
2023/06/22 02:43:58;;;;;;;9.25;8.35;;;;;;;;;;10033422;29;20448;-71
2023/06/22 02:48:54;;;;;;;10.23;9.13;;;;;;;;;;10036383;29;20480;-71
2023/06/22 02:53:52;;;;;;;10.63;9.07;;;;;;;;;;10015437;29;20135;-74
2023/06/22 02:58:48;;;;;;;9.93;8.93;;;;;;;;;;10033065;29;20080;-71
2023/06/22 03:03:44;;;;;;;11.82;9.82;;;;;;;;;;10032060;29;20180;-72
2023/06/22 03:08:41;;;;;;;10.55;9.55;;;;;;;;;;10033712;29;20036;-72
2023/06/22 03:13:37;;;;;;;10.63;9.63;;;;;;;;;;10035850;29;20192;-75
2023/06/22 03:18:34;;;;;;;11.25;9.98;;;;;;;;;;10026894;29;20044;-74
2023/06/22 03:23:30;;;;;;;11.32;10.23;;;;;;;;;;10034736;29;20126;-75
2023/06/22 03:28:26;;;;;;;12.40;11.15;;;;;;;;;;10032827;29;20424;-76
2023/06/22 03:33:23;;;;;;;10.77;9.88;;;;;;;;;;10033381;29;20051;-72
2023/06/22 03:38:19;;;;;;;11.35;10.25;;;;;;;;;;10034009;29;20075;-72
2023/06/22 03:43:15;;;;;;;10.40;9.40;;;;;;;;;;10032790;29;20139;-72
2023/06/22 03:48:12;;;;;;;11.20;10.02;;;;;;;;;;10031822;29;20158;-72
2023/06/22 03:53:08;;;;;;;10.70;9.70;;;;;;;;;;10027955;29;20078;-71
2023/06/22 03:58:05;;;;;;;11.35;10.32;;;;;;;;;;10033511;29;20078;-71
2023/06/22 04:03:02;;;;;;;10.85;9.75;;;;;;;;;;10023860;29;20054;-75
2023/06/22 04:07:58;;;;;;;10.65;9.68;;;;;;;;;;10032356;29;20091;-73
2023/06/22 04:12:54;;;;;;;11.48;10.45;;;;;;;;;;10030718;29;20064;-74
2023/06/22 04:17:51;;;;;;;10.65;9.63;;;;;;;;;;10031426;29;20099;-71
2023/06/22 04:22:47;;;;;;;11.73;10.57;;;;;;;;;;10025544;29;20044;-71
2023/06/22 04:27:44;;;;;;;10.60;9.70;;;;;;;;;;10025195;29;20130;-71
2023/06/22 04:32:41;;;;;;;10.68;9.68;;;;;;;;;;10023268;29;20540;-71
2023/06/22 04:37:39;;;;;;;11.55;10.50;;;;;;;;;;10026199;29;20754;-71
2023/06/22 04:42:36;;;;;;;12.88;10.63;;;;;;;;;;10032144;29;20673;-71
2023/06/22 04:47:32;;;;;;;11.95;10.95;;;;;;;;;;10015712;29;20062;-71
2023/06/22 04:52:29;;;;;;;12.57;11.30;;;;;;;;;;10030132;29;20134;-71
2023/06/22 04:57:31;;;;;;;13.32;11.95;;;;;;;;;;10027771;29;20126;-71
2023/06/22 05:02:32;;;;;;;11.27;10.18;;;;;;;;;;10011089;29;20098;-71
2023/06/22 05:07:29;;;;;;;13.00;10.77;;;;;;;;;;10028678;29;20040;-71
2023/06/22 05:12:27;;;;;;;11.75;10.75;;;;;;;;;;10027125;29;20067;-71
2023/06/22 05:17:24;;;;;;;12.50;11.18;;;;;;;;;;10024510;29;20052;-71
2023/06/22 05:22:21;;;;;;;10.57;9.68;;;;;;;;;;10030241;29;20047;-71
2023/06/22 05:27:17;;;;;;;10.45;9.38;;;;;;;;;;10028469;29;20051;-71
2023/06/22 05:32:14;;;;;;;10.98;10.10;;;;;;;;;;10029135;29;20501;-71
2023/06/22 05:37:10;;;;;;;10.30;9.43;;;;;;;;;;10028220;29;20466;-71
2023/06/22 05:42:07;;;;;;;11.30;10.20;;;;;;;;;;10029682;29;20043;-70
2023/06/22 05:47:06;;;;;;;10.10;9.20;;;;;;;;;;10029065;29;20044;-71
2023/06/22 05:52:02;;;;;;;10.18;9.27;;;;;;;;;;10028678;29;20051;-71
2023/06/22 05:56:59;;;;;;;9.95;9.15;;;;;;;;;;10035013;29;20490;-71
2023/06/22 06:01:55;;;;;;;10.32;9.43;;;;;;;;;;10036341;29;20060;-71
2023/06/22 06:06:52;;;;;;;9.57;8.60;;;;;;;;;;10034768;29;20051;-71
2023/06/22 06:11:48;;;;;;;10.27;9.38;;;;;;;;;;10038376;29;20051;-71
2023/06/22 06:16:46;;;;;;;10.18;9.35;;;;;;;;;;10029857;29;20048;-71
2023/06/22 06:21:42;;;;;;;9.90;9.10;;;;;;;;;;10036526;29;20048;-71
2023/06/22 06:26:39;;;;;;;9.65;8.85;;;;;;;;;;10036820;29;20131;-71
2023/06/22 06:31:37;;;;;;;9.93;9.13;;;;;;;;;;10037608;29;20710;-72
2023/06/22 06:36:33;;;;;;;10.25;9.20;;;;;;;;;;10036327;29;20458;-71
2023/06/22 06:41:29;;;;;;;9.75;8.80;;;;;;;;;;10032795;29;20125;-71
2023/06/22 06:46:29;;;;;;;9.75;8.95;;;;;;;;;;10034016;29;20407;-71
2023/06/22 06:51:25;;;;;;;10.25;9.40;;;;;;;;;;10035841;29;20430;-71
2023/06/22 06:56:24;;;;;;;10.13;9.10;;;;;;;;;;10035298;29;20039;-71
2023/06/22 07:01:20;;;;;;;10.02;9.13;;;;;;;;;;10016570;29;20043;-71
2023/06/22 07:06:18;;;;;;;10.23;9.32;;;;;;;;;;10014945;29;20514;-71
2023/06/22 07:11:14;;;;;;;11.10;10.02;;;;;;;;;;10013662;29;20075;-71
2023/06/22 07:16:10;;;;;;;9.95;9.15;;;;;;;;;;10010012;29;20119;-71
2023/06/22 07:21:07;;;;;;;9.82;9.13;;;;;;;;;;10032513;29;20471;-71
2023/06/22 07:26:06;;;;;;;10.35;9.45;;;;;;;;;;10035753;29;20553;-71
2023/06/22 07:31:02;;;;;;;11.10;10.00;;;;;;;;;;10016440;29;20056;-71
2023/06/22 07:35:59;;;;;;;11.35;10.23;;;;;;;;;;10028985;29;20533;-71
2023/06/22 07:40:55;;;;;;;10.52;9.70;;;;;;;;;;10033331;29;20518;-71
2023/06/22 07:45:52;;;;;;;11.70;10.70;;;;;;;;;;10032034;29;20051;-71
2023/06/22 07:50:49;;;;;;;12.18;11.18;;;;;;;;;;10033134;29;20483;-72
2023/06/22 07:55:45;;;;;;;10.75;9.95;;;;;;;;;;10035111;29;20054;-71
2023/06/22 08:00:45;;;;;;;11.65;10.65;;;;;;;;;;10033818;29;20054;-72
2023/06/22 08:05:41;;;;;;;11.63;10.60;;;;;;;;;;10033485;29;20056;-72
2023/06/22 08:10:37;;;;;;;11.32;10.43;;;;;;;;;;10033619;29;20043;-71
2023/06/22 08:15:33;;;;;;;10.55;9.75;;;;;;;;;;10032461;29;20059;-70
2023/06/22 08:20:30;;;;;;;11.02;10.13;;;;;;;;;;10031533;29;20044;-71
2023/06/22 08:25:27;;;;;;;11.18;10.38;;;;;;;;;;10027406;29;20051;-72
2023/06/22 08:30:24;;;;;;;11.35;10.38;;;;;;;;;;10032805;29;20506;-71
2023/06/22 08:35:24;;;;;;;10.07;9.27;;;;;;;;;;10030688;29;20106;-71
2023/06/22 08:40:20;;;;;;;10.88;9.95;;;;;;;;;;10031664;29;20046;-72
2023/06/22 08:45:17;;;;;;;10.05;9.15;;;;;;;;;;10029532;29;20078;-71
2023/06/22 08:50:13;;;;;;;10.00;9.20;;;;;;;;;;10027688;29;20052;-72
2023/06/22 08:55:10;;;;;;;9.57;8.85;;;;;;;;;;10029835;29;20458;-72
2023/06/22 09:00:15;;;;;;;10.82;8.77;;;;;;;;;;10028310;29;20057;-72
2023/06/22 09:05:12;;;;;;;10.35;9.60;;;;;;;;;;10032832;29;20118;-71
2023/06/22 09:10:09;;;;;;;10.02;9.23;;;;;;;;;;10030943;29;20058;-72
2023/06/22 09:15:07;;;;;;;10.88;9.98;;;;;;;;;;10031522;29;20478;-71
2023/06/22 09:20:10;;;;;;;10.50;9.70;;;;;;;;;;10032240;29;20166;-71
2023/06/22 09:25:07;;;;;;;10.90;9.95;;;;;;;;;;10031182;29;20059;-71
2023/06/22 09:30:04;;;;;;;11.30;10.40;;;;;;;;;;10030849;29;20051;-71
2023/06/22 09:35:03;;;;;;;10.35;9.60;;;;;;;;;;10031825;29;20044;-71
2023/06/22 09:40:00;;;;;;;11.75;10.85;;;;;;;;;;10024067;29;20048;-72
2023/06/22 09:44:56;;;;;;;11.43;10.20;;;;;;;;;;10029534;29;20099;-71
2023/06/22 09:49:54;;;;;;;11.00;10.20;;;;;;;;;;10011670;29;20044;-71
2023/06/22 09:54:50;;;;;;;11.15;9.90;;;;;;;;;;10027331;29;20403;-71
2023/06/22 09:59:47;;;;;;;10.50;9.75;;;;;;;;;;10013755;29;20498;-71
2023/06/22 10:04:46;;;;;;;10.68;9.68;;;;;;;;;;10018956;29;20072;-72
2023/06/22 10:09:42;;;;;;;11.60;10.60;;;;;;;;;;10027669;29;20522;-71
2023/06/22 10:14:38;;;;;;;11.40;10.40;;;;;;;;;;10013007;29;20106;-72
2023/06/22 10:19:37;;;;;;;11.07;10.27;;;;;;;;;;10021428;29;20099;-72
2023/06/22 10:24:33;;;;;;;11.65;10.75;;;;;;;;;;10028904;29;20047;-73
2023/06/22 10:29:29;;;;;;;11.35;10.55;;;;;;;;;;10022040;29;20075;-73
2023/06/22 10:34:26;;;;;;;10.98;10.18;;;;;;;;;;10007196;29;20056;-72
2023/06/22 10:39:22;;;;;;;11.50;10.60;;;;;;;;;;10024426;29;20047;-72
2023/06/22 10:44:18;;;;;;;11.40;10.55;;;;;;;;;;10031129;29;20052;-72
2023/06/22 10:49:15;;;;;;;11.77;10.73;;;;;;;;;;10035932;29;20102;-72
2023/06/22 10:54:13;;;;;;;10.82;10.02;;;;;;;;;;10038897;29;20485;-72
2023/06/22 10:59:10;;;;;;;9.50;8.70;;;;;;;;;;10016967;29;20036;-72
2023/06/22 11:04:06;;;;;;;10.75;9.70;;;;;;;;;;10020430;29;20581;-72
2023/06/22 11:09:04;;;;;;;11.15;10.25;;;;;;;;;;10030839;29;20060;-72
2023/06/22 11:14:20;;;;;;;11.32;10.50;;;;;;;;;;10036142;29;20406;-72
2023/06/22 11:19:18;;;;;;;9.88;9.07;;;;;;;;;;10034366;29;20454;-72
2023/06/22 11:24:15;;;;;;;11.05;10.25;;;;;;;;;;10037013;29;20052;-72
2023/06/22 11:29:12;;;;;;;10.52;9.50;;;;;;;;;;10032393;29;20095;-71
2023/06/22 11:34:27;;;;;;;11.32;10.15;;;;;;;;;;10033591;29;20043;-72
2023/06/22 11:39:24;;;;;;;10.13;9.32;;;;;;;;;;10015136;29;20108;-71
2023/06/22 11:44:36;;;;;;;9.85;9.15;;;;;;;;;;10028332;29;20047;-72
2023/06/22 11:49:32;;;;;;;10.45;9.55;;;;;;;;;;10033940;29;20061;-71
2023/06/22 11:54:29;;;;;;;10.73;9.93;;;;;;;;;;10034841;29;21265;-72
2023/06/22 11:59:25;;;;;;;10.95;10.05;;;;;;;;;;10033316;29;20040;-72
2023/06/22 12:04:21;;;;;;;10.02;9.18;;;;;;;;;;10031074;29;20427;-72
2023/06/22 12:09:18;;;;;;;11.27;10.18;;;;;;;;;;10031613;29;20050;-72
2023/06/22 12:14:14;;;;;;;10.70;9.90;;;;;;;;;;10034231;29;20047;-72
2023/06/22 12:19:11;;;;;;;11.07;10.05;;;;;;;;;;10032497;29;20058;-72
2023/06/22 12:24:07;;;;;;;10.95;10.05;;;;;;;;;;10031110;29;20044;-72
2023/06/22 12:29:03;;;;;;;10.30;9.60;;;;;;;;;;10029482;29;20047;-72
2023/06/22 12:34:00;;;;;;;10.95;10.00;;;;;;;;;;10032274;29;20051;-71
2023/06/22 12:38:56;;;;;;;10.40;9.48;;;;;;;;;;10029958;29;20051;-72
2023/06/22 12:43:52;;;;;;;10.32;9.38;;;;;;;;;;10032625;29;20048;-72
2023/06/22 12:48:49;;;;;;;10.82;9.93;;;;;;;;;;10030205;29;20056;-71
2023/06/22 12:53:45;;;;;;;10.30;9.40;;;;;;;;;;10032487;29;20130;-71
2023/06/22 12:58:41;;;;;;;10.73;9.82;;;;;;;;;;10028554;29;20071;-72
2023/06/22 13:03:38;;;;;;;9.38;8.68;;;;;;;;;;10028448;29;20119;-72
2023/06/22 13:08:34;;;;;;;11.73;9.90;;;;;;;;;;10030471;29;20079;-71
2023/06/22 13:13:50;;;;;;;10.65;9.65;;;;;;;;;;10029640;29;20425;-71
2023/06/22 13:18:46;;;;;;;10.77;9.75;;;;;;;;;;10026770;29;20457;-72
2023/06/22 13:23:43;;;;;;;10.43;9.52;;;;;;;;;;10031381;29;20051;-71
2023/06/22 13:28:39;;;;;;;11.60;10.52;;;;;;;;;;10029224;29;20079;-72
2023/06/22 13:33:35;;;;;;;9.75;9.02;;;;;;;;;;10024595;29;20056;-72
2023/06/22 13:38:32;;;;;;;9.77;8.90;;;;;;;;;;10023054;29;20154;-72
2023/06/22 13:43:28;;;;;;;10.88;9.98;;;;;;;;;;10026763;29;20047;-72
2023/06/22 13:48:25;;;;;;;10.52;9.60;;;;;;;;;;10030614;29;20051;-71
2023/06/22 13:53:22;;;;;;;10.50;9.50;;;;;;;;;;10030830;29;20127;-72
2023/06/22 13:58:19;;;;;;;9.63;8.82;;;;;;;;;;10031506;29;20071;-71
2023/06/22 14:03:16;;;;;;;11.18;10.18;;;;;;;;;;10028669;29;20492;-71
2023/06/22 14:08:13;;;;;;;12.23;11.23;;;;;;;;;;10029703;29;20060;-71
2023/06/22 14:13:29;;;;;;;11.18;10.27;;;;;;;;;;10035155;29;20072;-72
2023/06/22 14:18:26;;;;;;;10.27;9.48;;;;;;;;;;10033623;29;20055;-72
2023/06/22 14:23:22;;;;;;;10.30;9.30;;;;;;;;;;10038829;29;20786;-71
2023/06/22 14:28:18;;;;;;;10.73;9.77;;;;;;;;;;10036497;29;20071;-72
2023/06/22 14:33:14;;;;;;;10.82;9.85;;;;;;;;;;10030757;29;20075;-71
2023/06/22 14:38:11;;;;;;;10.25;9.45;;;;;;;;;;10036261;29;20556;-72
2023/06/22 14:43:07;;;;;;;12.48;11.27;;;;;;;;;;10035872;29;21351;-71
2023/06/22 14:48:03;;;;;;;12.05;11.10;;;;;;;;;;10037618;29;20510;-71
2023/06/22 14:53:00;;;;;;;12.02;11.02;;;;;;;;;;10037746;29;20417;-71
2023/06/22 14:57:56;;;;;;;11.63;10.73;;;;;;;;;;10017948;29;20533;-70
2023/06/22 15:02:53;;;;;;;12.05;11.15;;;;;;;;;;10037760;29;20052;-71
2023/06/22 15:07:49;;;;;;;12.23;11.13;;;;;;;;;;10038908;29;20051;-71
2023/06/22 15:12:46;;;;;;;12.00;10.98;;;;;;;;;;10035226;29;20047;-71
2023/06/22 15:17:42;;;;;;;11.18;10.27;;;;;;;;;;10029292;29;20058;-71
2023/06/22 15:22:38;;;;;;;11.13;10.15;;;;;;;;;;10033424;29;20071;-71
2023/06/22 15:27:35;;;;;;;11.60;10.60;;;;;;;;;;10027257;29;20051;-71
2023/06/22 15:32:31;;;;;;;10.75;9.85;;;;;;;;;;10035059;29;20063;-71
2023/06/22 15:37:28;;;;;;;10.93;10.02;;;;;;;;;;10034709;29;20047;-71
2023/06/22 15:42:24;;;;;;;12.30;11.20;;;;;;;;;;10036525;29;20429;-71
2023/06/22 15:47:22;;;;;;;10.88;9.98;;;;;;;;;;10034414;29;20054;-72
2023/06/22 15:52:19;;;;;;;10.48;9.68;;;;;;;;;;10032506;29;20506;-71
2023/06/22 15:57:15;;;;;;;10.38;9.55;;;;;;;;;;10032353;29;20047;-71
2023/06/22 16:02:11;;;;;;;10.70;8.82;;;;;;;;;;10029180;29;20707;-71
2023/06/22 16:07:08;;;;;;;10.75;9.85;;;;;;;;;;10034815;29;20050;-71
2023/06/22 16:12:05;;;;;;;9.85;9.05;;;;;;;;;;10034111;29;20058;-71
2023/06/22 16:17:01;;;;;;;10.20;9.40;;;;;;;;;;10032510;29;20052;-71
2023/06/22 16:22:00;;;;;;;10.15;9.25;;;;;;;;;;10032500;29;20142;-71
2023/06/22 16:26:56;;;;;;;11.85;10.75;;;;;;;;;;10030269;29;20471;-71
2023/06/22 16:31:53;;;;;;;10.00;9.20;;;;;;;;;;10013567;29;20078;-71
2023/06/22 16:36:49;;;;;;;10.00;9.02;;;;;;;;;;10029479;29;20124;-71
2023/06/22 16:41:49;;;;;;;9.77;8.98;;;;;;;;;;10029084;29;20498;-71
2023/06/22 16:46:46;;;;;;;10.90;9.90;;;;;;;;;;10026272;29;20585;-71
2023/06/22 16:51:42;;;;;;;10.98;10.10;;;;;;;;;;10028893;29;20066;-71
2023/06/22 16:56:39;;;;;;;10.70;9.65;;;;;;;;;;10026696;29;20056;-70
2023/06/22 17:01:37;;;;;;;9.90;9.13;;;;;;;;;;10030132;29;20052;-73
2023/06/22 17:06:34;;;;;;;10.30;9.40;;;;;;;;;;10028140;29;20063;-73
2023/06/22 17:11:31;;;;;;;9.70;8.98;;;;;;;;;;10031796;29;20059;-73
2023/06/22 17:16:31;;;;;;;9.13;8.32;;;;;;;;;;10031510;29;20048;-74
2023/06/22 17:21:29;;;;;;;9.50;8.68;;;;;;;;;;10013586;29;20044;-73
2023/06/22 17:26:26;;;;;;;10.73;9.63;;;;;;;;;;10006540;29;20075;-72
2023/06/22 17:31:23;;;;;;;10.55;9.55;;;;;;;;;;10007688;29;20135;-73
2023/06/22 17:36:20;;;;;;;9.10;8.40;;;;;;;;;;10022330;29;20051;-72
2023/06/22 17:41:16;;;;;;;9.82;8.90;;;;;;;;;;10031408;29;20056;-71
2023/06/22 17:46:14;;;;;;;8.70;7.97;;;;;;;;;;10027537;29;20044;-74
2023/06/22 17:51:13;;;;;;;8.45;7.75;;;;;;;;;;10019796;28;20494;-73
2023/06/22 17:56:12;;;;;;;9.02;8.27;;;;;;;;;;10031228;29;20047;-73
2023/06/22 18:01:09;;;;;;;8.10;7.32;;;;;;;;;;10031414;29;20051;-73
2023/06/22 18:06:05;;;;;;;7.10;6.60;;;;;;;;;;10034448;29;20411;-73
2023/06/22 18:11:05;;;;;;;7.25;6.70;;;;;;;;;;10035338;29;20044;-73
2023/06/22 18:16:01;;;;;;;7.80;7.07;;;;;;;;;;10034349;29;20146;-73
2023/06/22 18:20:59;;;;;;;7.68;6.97;;;;;;;;;;10036016;29;20095;-73
2023/06/22 18:25:56;;;;;;;7.22;6.55;;;;;;;;;;10033868;29;20052;-73
2023/06/22 18:30:53;;;;;;;7.55;6.85;;;;;;;;;;10032485;29;20467;-73
2023/06/22 18:35:51;;;;;;;7.72;6.97;;;;;;;;;;10033623;29;20071;-73
2023/06/22 18:40:48;;;;;;;7.55;6.95;;;;;;;;;;10032702;29;20075;-73
2023/06/22 18:45:45;;;;;;;7.80;7.00;;;;;;;;;;10032527;29;20048;-73
2023/06/22 18:50:42;;;;;;;7.30;6.70;;;;;;;;;;10033642;29;20051;-73
2023/06/22 18:55:40;;;;;;;7.35;6.75;;;;;;;;;;10031819;29;20106;-73
2023/06/22 19:00:36;;;;;;;5.93;5.43;;;;;;;;;;10028918;29;20127;-73
2023/06/22 19:05:38;;;;;;;7.15;6.55;;;;;;;;;;10031924;29;20138;-73
2023/06/22 19:10:42;;;;;;;6.70;6.20;;;;;;;;;;10030401;29;20118;-72
2023/06/22 19:15:39;;;;;;;6.70;6.00;;;;;;;;;;10031244;29;20051;-72
2023/06/22 19:20:35;;;;;;;6.80;6.20;;;;;;;;;;10034211;29;20047;-72
2023/06/22 19:25:33;;;;;;;6.93;6.22;;;;;;;;;;10032451;29;20075;-73
2023/06/22 19:30:31;;;;;;;7.07;6.38;;;;;;;;;;10032981;29;20056;-72
2023/06/22 19:35:28;;;;;;;5.90;5.30;;;;;;;;;;10029712;29;20052;-72
2023/06/22 19:40:25;;;;;;;6.22;5.72;;;;;;;;;;10023099;29;20048;-72
2023/06/22 19:45:22;;;;;;;6.10;5.60;;;;;;;;;;10035114;29;20151;-73
2023/06/22 19:50:20;;;;;;;6.50;5.90;;;;;;;;;;10030303;29;20452;-72
2023/06/22 19:55:21;;;;;;;6.32;5.82;;;;;;;;;;10025642;29;20967;-72
2023/06/22 20:00:21;;;;;;;6.82;6.10;;;;;;;;;;10029465;29;20052;-73
2023/06/22 20:05:19;;;;;;;6.40;5.80;;;;;;;;;;10013418;29;20056;-72
2023/06/22 20:10:20;;;;;;;6.03;5.55;;;;;;;;;;10027680;29;20071;-71
2023/06/22 20:15:23;;;;;;;6.63;6.03;;;;;;;;;;10020877;29;20815;-74
2023/06/22 20:20:24;;;;;;;6.32;5.82;;;;;;;;;;10024840;29;20044;-75
2023/06/22 20:25:21;;;;;;;5.93;5.43;;;;;;;;;;10024317;29;20734;-75
2023/06/22 20:30:19;;;;;;;5.90;5.40;;;;;;;;;;10009139;29;20048;-74
2023/06/22 20:35:16;;;;;;;6.60;6.00;;;;;;;;;;10027760;29;20043;-74
2023/06/22 20:40:13;;;;;;;6.85;6.25;;;;;;;;;;10023160;29;20055;-70
2023/06/22 20:45:09;;;;;;;7.20;6.60;;;;;;;;;;10027945;29;20075;-71
2023/06/22 20:50:06;;;;;;;8.40;7.47;;;;;;;;;;10026401;29;20494;-72
2023/06/22 20:55:03;;;;;;;10.50;7.78;;;;;;;;;;10026893;29;20044;-71
2023/06/22 21:00:00;;;;;;;10.02;8.20;;;;;;;;;;10025253;29;20494;-73
2023/06/22 21:04:57;;;;;;;13.98;11.13;;;;;;;;;;10031894;29;20055;-73
2023/06/22 21:09:53;;;;;;;15.25;8.93;;;;;;;;;;10004764;29;20426;-73
2023/06/22 21:14:50;;;;;;;12.15;8.15;;;;;;;;;;10027635;29;20075;-71
2023/06/22 21:19:46;;;;;;;11.77;9.73;;;;;;;;;;10029245;29;20052;-71
2023/06/22 21:24:43;;;;;;;14.23;9.48;;;;;;;;;;10028712;29;20102;-71
2023/06/22 21:29:40;;;;;;;11.95;10.70;;;;;;;;;;10027242;29;20047;-71
2023/06/22 21:34:37;;;;;;;12.43;9.10;;;;;;;;;;10028062;29;20052;-70
2023/06/22 21:39:35;;;;;;;11.02;9.63;;;;;;;;;;10028312;29;20654;-69
2023/06/22 21:44:31;;;;;;;10.38;9.23;;;;;;;;;;10029695;29;20063;-71
2023/06/22 21:49:28;;;;;;;10.55;8.95;;;;;;;;;;10027314;29;20107;-71
2023/06/22 21:54:24;;;;;;;11.40;9.05;;;;;;;;;;10011031;29;20047;-73
2023/06/22 21:59:22;;;;;;;8.90;8.02;;;;;;;;;;10022162;29;20184;-72
2023/06/22 22:04:18;;;;;;;13.98;9.43;;;;;;;;;;10029450;29;20158;-71
2023/06/22 22:09:14;;;;;;;10.00;9.00;;;;;;;;;;10025681;29;20051;-72
2023/06/22 22:14:12;;;;;;;10.55;9.55;;;;;;;;;;10022881;29;20036;-74
2023/06/22 22:19:08;;;;;;;10.63;9.63;;;;;;;;;;10025815;29;20865;-74
2023/06/22 22:24:05;;;;;;;10.18;9.27;;;;;;;;;;10029059;29;20044;-73
2023/06/22 22:29:02;;;;;;;13.93;11.25;;;;;;;;;;10011117;29;20048;-72
2023/06/22 22:33:58;;;;;;;11.50;10.20;;;;;;;;;;10023195;29;20067;-72
2023/06/22 22:38:54;;;;;;;12.60;9.93;;;;;;;;;;10026718;29;20422;-71
2023/06/22 22:43:51;;;;;;;10.07;9.13;;;;;;;;;;10034183;29;20047;-72
2023/06/22 22:48:47;;;;;;;9.00;8.25;;;;;;;;;;10032115;29;20040;-72
2023/06/22 22:53:44;;;;;;;9.23;8.43;;;;;;;;;;10033584;29;20039;-73
2023/06/22 22:58:40;;;;;;;8.57;7.82;;;;;;;;;;10034517;29;20047;-72
2023/06/22 23:03:36;;;;;;;10.40;9.35;;;;;;;;;;10038201;29;20043;-72
2023/06/22 23:08:33;;;;;;;20.85;9.32;;;;;;;;;;10033081;29;20562;-75
2023/06/22 23:13:29;;;;;;;12.38;9.32;;;;;;;;;;10030280;29;20044;-76
2023/06/22 23:18:26;;;;;;;46.70;10.32;;;;;;;;;;10035175;29;20095;-73
2023/06/22 23:23:23;;;;;;;11.30;8.48;;;;;;;;;;10011969;29;20071;-73
2023/06/22 23:28:19;;;;;;;10.68;9.57;;;;;;;;;;10030227;29;20075;-70
2023/06/22 23:33:34;;;;;;;12.27;9.88;;;;;;;;;;10033632;29;20742;-72
2023/06/22 23:38:32;;;;;;;13.00;10.55;;;;;;;;;;10035608;29;20086;-72
2023/06/22 23:43:28;;;;;;;15.10;10.73;;;;;;;;;;10035871;29;20036;-72
2023/06/22 23:48:24;;;;;;;14.65;10.70;;;;;;;;;;10020305;29;20110;-72
2023/06/22 23:53:21;;;;;;;12.65;9.43;;;;;;;;;;10030941;29;20043;-72
2023/06/22 23:58:17;;;;;;;15.90;10.38;;;;;;;;;;10024791;29;20055;-74
